sensor_id;sensor_type;location;lat;lon;timestamp;P1;durP1;ratioP1;P2;durP2;ratioP2
21621;SDS011;10973;46.706;12.340;2022-12-18T00:00:00;3.33;;;3.00;;
21621;SDS011;10973;46.706;12.340;2022-12-18T00:02:27;3.00;;;2.80;;
21621;SDS011;10973;46.706;12.340;2022-12-18T00:04:55;4.13;;;3.00;;
21621;SDS011;10973;46.706;12.340;2022-12-18T00:07:22;3.13;;;2.93;;
21621;SDS011;10973;46.706;12.340;2022-12-18T00:09:49;3.57;;;3.27;;
21621;SDS011;10973;46.706;12.340;2022-12-18T00:12:16;3.33;;;3.03;;
21621;SDS011;10973;46.706;12.340;2022-12-18T00:14:48;3.63;;;3.33;;
21621;SDS011;10973;46.706;12.340;2022-12-18T00:17:16;4.13;;;3.80;;
21621;SDS011;10973;46.706;12.340;2022-12-18T00:19:43;4.63;;;4.23;;
21621;SDS011;10973;46.706;12.340;2022-12-18T00:22:10;5.73;;;5.23;;
21621;SDS011;10973;46.706;12.340;2022-12-18T00:24:37;6.23;;;5.27;;
21621;SDS011;10973;46.706;12.340;2022-12-18T00:27:04;6.53;;;5.10;;
21621;SDS011;10973;46.706;12.340;2022-12-18T00:29:32;5.63;;;5.13;;
21621;SDS011;10973;46.706;12.340;2022-12-18T00:31:59;5.30;;;4.80;;
21621;SDS011;10973;46.706;12.340;2022-12-18T00:34:26;4.90;;;4.47;;
21621;SDS011;10973;46.706;12.340;2022-12-18T00:36:54;4.83;;;3.47;;
21621;SDS011;10973;46.706;12.340;2022-12-18T00:39:21;3.70;;;3.47;;
21621;SDS011;10973;46.706;12.340;2022-12-18T00:41:48;3.93;;;3.63;;
21621;SDS011;10973;46.706;12.340;2022-12-18T00:44:16;3.57;;;3.37;;
21621;SDS011;10973;46.706;12.340;2022-12-18T00:46:45;3.90;;;3.63;;
21621;SDS011;10973;46.706;12.340;2022-12-18T00:49:15;3.97;;;3.43;;
21621;SDS011;10973;46.706;12.340;2022-12-18T00:51:45;4.37;;;4.00;;
21621;SDS011;10973;46.706;12.340;2022-12-18T00:54:12;3.53;;;3.30;;
21621;SDS011;10973;46.706;12.340;2022-12-18T00:56:40;4.03;;;3.63;;
21621;SDS011;10973;46.706;12.340;2022-12-18T00:59:18;3.83;;;3.60;;
21621;SDS011;10973;46.706;12.340;2022-12-18T01:01:46;3.90;;;3.60;;
21621;SDS011;10973;46.706;12.340;2022-12-18T01:04:14;4.30;;;4.00;;
21621;SDS011;10973;46.706;12.340;2022-12-18T01:06:41;4.27;;;3.97;;
21621;SDS011;10973;46.706;12.340;2022-12-18T01:09:09;3.97;;;3.67;;
21621;SDS011;10973;46.706;12.340;2022-12-18T01:11:37;4.40;;;4.00;;
21621;SDS011;10973;46.706;12.340;2022-12-18T01:14:04;3.90;;;3.60;;
21621;SDS011;10973;46.706;12.340;2022-12-18T01:16:31;4.03;;;3.73;;
21621;SDS011;10973;46.706;12.340;2022-12-18T01:18:59;4.73;;;4.17;;
21621;SDS011;10973;46.706;12.340;2022-12-18T01:21:26;3.97;;;3.67;;
21621;SDS011;10973;46.706;12.340;2022-12-18T01:23:54;4.03;;;3.53;;
21621;SDS011;10973;46.706;12.340;2022-12-18T01:26:23;3.60;;;3.30;;
21621;SDS011;10973;46.706;12.340;2022-12-18T01:28:53;3.77;;;3.57;;
21621;SDS011;10973;46.706;12.340;2022-12-18T01:31:23;3.33;;;3.13;;
21621;SDS011;10973;46.706;12.340;2022-12-18T01:33:56;3.40;;;3.20;;
21621;SDS011;10973;46.706;12.340;2022-12-18T01:36:27;3.10;;;2.90;;
21621;SDS011;10973;46.706;12.340;2022-12-18T01:39:04;3.87;;;3.60;;
21621;SDS011;10973;46.706;12.340;2022-12-18T01:41:40;3.30;;;3.10;;
21621;SDS011;10973;46.706;12.340;2022-12-18T01:47:43;3.67;;;3.47;;
21621;SDS011;10973;46.706;12.340;2022-12-18T01:50:20;3.40;;;3.20;;
21621;SDS011;10973;46.706;12.340;2022-12-18T01:53:33;3.83;;;3.63;;
21621;SDS011;10973;46.706;12.340;2022-12-18T01:55:49;4.33;;;3.93;;
21621;SDS011;10973;46.706;12.340;2022-12-18T01:58:23;4.17;;;3.80;;
21621;SDS011;10973;46.706;12.340;2022-12-18T02:01:07;3.40;;;3.20;;
21621;SDS011;10973;46.706;12.340;2022-12-18T02:03:35;3.63;;;3.33;;
21621;SDS011;10973;46.706;12.340;2022-12-18T02:06:12;3.47;;;3.27;;
21621;SDS011;10973;46.706;12.340;2022-12-18T02:11:53;3.60;;;3.40;;
21621;SDS011;10973;46.706;12.340;2022-12-18T02:20:13;4.17;;;3.57;;
21621;SDS011;10973;46.706;12.340;2022-12-18T02:28:45;4.07;;;3.73;;
21621;SDS011;10973;46.706;12.340;2022-12-18T02:31:24;3.13;;;2.93;;
21621;SDS011;10973;46.706;12.340;2022-12-18T02:33:58;3.33;;;3.13;;
21621;SDS011;10973;46.706;12.340;2022-12-18T02:36:30;3.47;;;3.27;;
21621;SDS011;10973;46.706;12.340;2022-12-18T02:39:02;4.63;;;3.93;;
21621;SDS011;10973;46.706;12.340;2022-12-18T02:41:34;3.97;;;3.67;;
21621;SDS011;10973;46.706;12.340;2022-12-18T02:44:07;3.50;;;3.30;;
21621;SDS011;10973;46.706;12.340;2022-12-18T02:46:41;3.03;;;2.83;;
21621;SDS011;10973;46.706;12.340;2022-12-18T02:52:13;4.10;;;3.80;;
21621;SDS011;10973;46.706;12.340;2022-12-18T02:57:45;3.90;;;3.50;;
21621;SDS011;10973;46.706;12.340;2022-12-18T03:00:23;3.17;;;2.97;;
21621;SDS011;10973;46.706;12.340;2022-12-18T03:03:01;3.27;;;3.07;;
21621;SDS011;10973;46.706;12.340;2022-12-18T03:06:10;3.40;;;3.10;;
21621;SDS011;10973;46.706;12.340;2022-12-18T03:08:59;3.57;;;3.10;;
21621;SDS011;10973;46.706;12.340;2022-12-18T03:11:36;3.30;;;3.00;;
21621;SDS011;10973;46.706;12.340;2022-12-18T03:14:11;3.10;;;2.90;;
21621;SDS011;10973;46.706;12.340;2022-12-18T03:16:43;3.53;;;3.10;;
21621;SDS011;10973;46.706;12.340;2022-12-18T03:19:15;5.57;;;3.60;;
21621;SDS011;10973;46.706;12.340;2022-12-18T03:21:49;4.67;;;4.03;;
21621;SDS011;10973;46.706;12.340;2022-12-18T03:24:20;5.77;;;5.20;;
21621;SDS011;10973;46.706;12.340;2022-12-18T03:26:52;4.30;;;3.90;;
21621;SDS011;10973;46.706;12.340;2022-12-18T03:29:30;5.57;;;4.17;;
21621;SDS011;10973;46.706;12.340;2022-12-18T03:32:16;5.87;;;5.23;;
21621;SDS011;10973;46.706;12.340;2022-12-18T03:34:53;4.13;;;3.83;;
21621;SDS011;10973;46.706;12.340;2022-12-18T03:37:27;4.20;;;3.87;;
21621;SDS011;10973;46.706;12.340;2022-12-18T03:39:57;3.53;;;3.33;;
21621;SDS011;10973;46.706;12.340;2022-12-18T03:45:31;4.00;;;3.60;;
21621;SDS011;10973;46.706;12.340;2022-12-18T03:48:12;4.10;;;3.70;;
21621;SDS011;10973;46.706;12.340;2022-12-18T03:51:02;4.40;;;4.03;;
21621;SDS011;10973;46.706;12.340;2022-12-18T03:54:05;3.83;;;3.53;;
21621;SDS011;10973;46.706;12.340;2022-12-18T03:56:38;3.80;;;3.30;;
21621;SDS011;10973;46.706;12.340;2022-12-18T03:59:13;3.80;;;3.60;;
21621;SDS011;10973;46.706;12.340;2022-12-18T04:01:45;4.53;;;4.13;;
21621;SDS011;10973;46.706;12.340;2022-12-18T04:04:17;4.57;;;4.17;;
21621;SDS011;10973;46.706;12.340;2022-12-18T04:06:51;3.70;;;3.40;;
21621;SDS011;10973;46.706;12.340;2022-12-18T04:09:27;3.37;;;3.07;;
21621;SDS011;10973;46.706;12.340;2022-12-18T04:11:58;3.20;;;3.00;;
21621;SDS011;10973;46.706;12.340;2022-12-18T04:14:25;3.47;;;3.10;;
21621;SDS011;10973;46.706;12.340;2022-12-18T04:16:52;3.10;;;2.90;;
21621;SDS011;10973;46.706;12.340;2022-12-18T04:19:19;3.67;;;3.47;;
21621;SDS011;10973;46.706;12.340;2022-12-18T04:21:47;3.73;;;3.53;;
21621;SDS011;10973;46.706;12.340;2022-12-18T04:24:14;3.70;;;3.40;;
21621;SDS011;10973;46.706;12.340;2022-12-18T04:26:41;3.30;;;3.10;;
21621;SDS011;10973;46.706;12.340;2022-12-18T04:29:08;5.30;;;4.80;;
21621;SDS011;10973;46.706;12.340;2022-12-18T04:31:39;12.67;;;7.93;;
21621;SDS011;10973;46.706;12.340;2022-12-18T04:34:27;7.67;;;5.07;;
21621;SDS011;10973;46.706;12.340;2022-12-18T04:36:56;3.97;;;3.63;;
21621;SDS011;10973;46.706;12.340;2022-12-18T04:39:24;3.93;;;3.63;;
21621;SDS011;10973;46.706;12.340;2022-12-18T04:41:52;3.63;;;3.43;;
21621;SDS011;10973;46.706;12.340;2022-12-18T04:44:21;3.30;;;3.10;;
21621;SDS011;10973;46.706;12.340;2022-12-18T04:47:07;3.53;;;3.30;;
21621;SDS011;10973;46.706;12.340;2022-12-18T04:49:34;3.27;;;3.07;;
21621;SDS011;10973;46.706;12.340;2022-12-18T04:52:02;4.87;;;3.20;;
21621;SDS011;10973;46.706;12.340;2022-12-18T04:54:29;3.47;;;3.27;;
21621;SDS011;10973;46.706;12.340;2022-12-18T04:56:56;3.33;;;3.13;;
21621;SDS011;10973;46.706;12.340;2022-12-18T04:59:23;3.30;;;3.10;;
21621;SDS011;10973;46.706;12.340;2022-12-18T05:01:51;3.30;;;3.10;;
21621;SDS011;10973;46.706;12.340;2022-12-18T05:04:18;3.80;;;3.50;;
21621;SDS011;10973;46.706;12.340;2022-12-18T05:06:45;4.27;;;3.87;;
21621;SDS011;10973;46.706;12.340;2022-12-18T05:09:13;5.17;;;4.70;;
21621;SDS011;10973;46.706;12.340;2022-12-18T05:11:40;4.77;;;4.37;;
21621;SDS011;10973;46.706;12.340;2022-12-18T05:14:08;6.97;;;5.40;;
21621;SDS011;10973;46.706;12.340;2022-12-18T05:16:35;6.20;;;4.77;;
21621;SDS011;10973;46.706;12.340;2022-12-18T05:19:02;7.23;;;6.23;;
21621;SDS011;10973;46.706;12.340;2022-12-18T05:21:29;12.97;;;9.57;;
21621;SDS011;10973;46.706;12.340;2022-12-18T05:23:56;9.83;;;8.83;;
21621;SDS011;10973;46.706;12.340;2022-12-18T05:26:23;7.10;;;6.40;;
21621;SDS011;10973;46.706;12.340;2022-12-18T05:28:51;8.00;;;6.93;;
21621;SDS011;10973;46.706;12.340;2022-12-18T05:31:18;12.10;;;10.20;;
21621;SDS011;10973;46.706;12.340;2022-12-18T05:33:45;15.90;;;13.33;;
21621;SDS011;10973;46.706;12.340;2022-12-18T05:36:12;9.73;;;8.73;;
21621;SDS011;10973;46.706;12.340;2022-12-18T05:38:40;12.87;;;10.10;;
21621;SDS011;10973;46.706;12.340;2022-12-18T05:41:08;44.97;;;23.57;;
21621;SDS011;10973;46.706;12.340;2022-12-18T05:43:36;30.37;;;17.00;;
21621;SDS011;10973;46.706;12.340;2022-12-18T05:46:07;34.53;;;20.00;;
21621;SDS011;10973;46.706;12.340;2022-12-18T05:48:39;54.67;;;29.43;;
21621;SDS011;10973;46.706;12.340;2022-12-18T05:51:09;31.97;;;19.07;;
21621;SDS011;10973;46.706;12.340;2022-12-18T05:53:39;17.73;;;11.63;;
21621;SDS011;10973;46.706;12.340;2022-12-18T05:56:12;36.20;;;21.23;;
21621;SDS011;10973;46.706;12.340;2022-12-18T05:58:43;35.90;;;20.60;;
21621;SDS011;10973;46.706;12.340;2022-12-18T06:01:12;69.63;;;35.57;;
21621;SDS011;10973;46.706;12.340;2022-12-18T06:03:45;29.07;;;17.60;;
21621;SDS011;10973;46.706;12.340;2022-12-18T06:06:23;32.70;;;17.83;;
21621;SDS011;10973;46.706;12.340;2022-12-18T06:08:53;13.80;;;9.70;;
21621;SDS011;10973;46.706;12.340;2022-12-18T06:11:23;26.17;;;16.10;;
21621;SDS011;10973;46.706;12.340;2022-12-18T06:13:53;27.23;;;19.33;;
21621;SDS011;10973;46.706;12.340;2022-12-18T06:16:25;14.57;;;11.07;;
21621;SDS011;10973;46.706;12.340;2022-12-18T06:18:56;14.03;;;10.67;;
21621;SDS011;10973;46.706;12.340;2022-12-18T06:21:26;10.33;;;8.30;;
21621;SDS011;10973;46.706;12.340;2022-12-18T06:23:54;11.73;;;10.50;;
21621;SDS011;10973;46.706;12.340;2022-12-18T06:26:23;10.37;;;8.80;;
21621;SDS011;10973;46.706;12.340;2022-12-18T06:28:54;11.00;;;9.17;;
21621;SDS011;10973;46.706;12.340;2022-12-18T06:31:21;14.43;;;12.83;;
21621;SDS011;10973;46.706;12.340;2022-12-18T06:33:48;27.07;;;18.80;;
21621;SDS011;10973;46.706;12.340;2022-12-18T06:36:16;23.50;;;17.93;;
21621;SDS011;10973;46.706;12.340;2022-12-18T06:38:43;19.20;;;14.47;;
21621;SDS011;10973;46.706;12.340;2022-12-18T06:41:16;16.20;;;11.80;;
21621;SDS011;10973;46.706;12.340;2022-12-18T06:43:46;18.17;;;12.87;;
21621;SDS011;10973;46.706;12.340;2022-12-18T06:46:14;34.57;;;20.90;;
21621;SDS011;10973;46.706;12.340;2022-12-18T06:48:41;38.70;;;25.47;;
21621;SDS011;10973;46.706;12.340;2022-12-18T06:51:08;40.60;;;25.37;;
21621;SDS011;10973;46.706;12.340;2022-12-18T06:53:36;18.13;;;14.13;;
21621;SDS011;10973;46.706;12.340;2022-12-18T06:56:05;13.63;;;11.63;;
21621;SDS011;10973;46.706;12.340;2022-12-18T06:58:36;10.93;;;9.77;;
21621;SDS011;10973;46.706;12.340;2022-12-18T07:01:05;11.93;;;9.17;;
21621;SDS011;10973;46.706;12.340;2022-12-18T07:03:36;74.33;;;46.47;;
21621;SDS011;10973;46.706;12.340;2022-12-18T07:06:06;23.60;;;19.20;;
21621;SDS011;10973;46.706;12.340;2022-12-18T07:08:43;14.80;;;13.13;;
21621;SDS011;10973;46.706;12.340;2022-12-18T07:11:12;14.13;;;12.37;;
21621;SDS011;10973;46.706;12.340;2022-12-18T07:13:40;12.33;;;10.13;;
21621;SDS011;10973;46.706;12.340;2022-12-18T07:16:09;14.63;;;12.00;;
21621;SDS011;10973;46.706;12.340;2022-12-18T07:18:47;26.13;;;17.90;;
21621;SDS011;10973;46.706;12.340;2022-12-18T07:21:16;25.87;;;18.30;;
21621;SDS011;10973;46.706;12.340;2022-12-18T07:23:47;49.87;;;32.60;;
21621;SDS011;10973;46.706;12.340;2022-12-18T07:26:16;28.83;;;18.60;;
21621;SDS011;10973;46.706;12.340;2022-12-18T07:28:46;15.03;;;11.40;;
21621;SDS011;10973;46.706;12.340;2022-12-18T07:31:16;16.10;;;13.83;;
21621;SDS011;10973;46.706;12.340;2022-12-18T07:33:47;20.23;;;15.40;;
21621;SDS011;10973;46.706;12.340;2022-12-18T07:36:16;29.40;;;20.93;;
21621;SDS011;10973;46.706;12.340;2022-12-18T07:38:46;19.60;;;15.37;;
21621;SDS011;10973;46.706;12.340;2022-12-18T07:41:15;12.50;;;11.17;;
21621;SDS011;10973;46.706;12.340;2022-12-18T07:43:43;22.17;;;16.53;;
21621;SDS011;10973;46.706;12.340;2022-12-18T07:46:11;17.10;;;14.57;;
21621;SDS011;10973;46.706;12.340;2022-12-18T07:48:40;20.77;;;14.00;;
21621;SDS011;10973;46.706;12.340;2022-12-18T07:51:15;26.10;;;17.77;;
21621;SDS011;10973;46.706;12.340;2022-12-18T07:53:43;17.83;;;14.40;;
21621;SDS011;10973;46.706;12.340;2022-12-18T07:56:11;69.07;;;40.40;;
21621;SDS011;10973;46.706;12.340;2022-12-18T07:58:57;21.27;;;14.23;;
21621;SDS011;10973;46.706;12.340;2022-12-18T08:01:25;19.77;;;13.07;;
21621;SDS011;10973;46.706;12.340;2022-12-18T08:03:53;21.13;;;15.80;;
21621;SDS011;10973;46.706;12.340;2022-12-18T08:06:21;19.40;;;14.73;;
21621;SDS011;10973;46.706;12.340;2022-12-18T08:08:53;44.60;;;28.37;;
21621;SDS011;10973;46.706;12.340;2022-12-18T08:11:22;31.00;;;20.50;;
21621;SDS011;10973;46.706;12.340;2022-12-18T08:13:52;17.47;;;13.57;;
21621;SDS011;10973;46.706;12.340;2022-12-18T08:16:20;14.53;;;12.47;;
21621;SDS011;10973;46.706;12.340;2022-12-18T08:18:48;17.67;;;13.10;;
21621;SDS011;10973;46.706;12.340;2022-12-18T08:21:20;13.87;;;10.40;;
21621;SDS011;10973;46.706;12.340;2022-12-18T08:23:56;8.77;;;7.17;;
21621;SDS011;10973;46.706;12.340;2022-12-18T08:26:28;12.40;;;11.10;;
21621;SDS011;10973;46.706;12.340;2022-12-18T08:28:58;12.83;;;10.83;;
21621;SDS011;10973;46.706;12.340;2022-12-18T08:31:27;12.30;;;10.57;;
21621;SDS011;10973;46.706;12.340;2022-12-18T08:33:56;12.90;;;10.30;;
21621;SDS011;10973;46.706;12.340;2022-12-18T08:36:24;9.83;;;7.57;;
21621;SDS011;10973;46.706;12.340;2022-12-18T08:38:52;10.23;;;7.80;;
21621;SDS011;10973;46.706;12.340;2022-12-18T08:41:20;7.00;;;6.30;;
21621;SDS011;10973;46.706;12.340;2022-12-18T08:43:47;7.13;;;6.43;;
21621;SDS011;10973;46.706;12.340;2022-12-18T08:46:15;6.50;;;5.90;;
21621;SDS011;10973;46.706;12.340;2022-12-18T08:48:44;7.03;;;6.30;;
21621;SDS011;10973;46.706;12.340;2022-12-18T08:51:11;7.43;;;6.60;;
21621;SDS011;10973;46.706;12.340;2022-12-18T08:53:39;8.57;;;7.30;;
21621;SDS011;10973;46.706;12.340;2022-12-18T08:56:07;31.53;;;17.53;;
21621;SDS011;10973;46.706;12.340;2022-12-18T08:58:35;62.60;;;31.00;;
21621;SDS011;10973;46.706;12.340;2022-12-18T09:01:03;31.03;;;17.80;;
21621;SDS011;10973;46.706;12.340;2022-12-18T09:03:35;14.30;;;10.43;;
21621;SDS011;10973;46.706;12.340;2022-12-18T09:06:04;19.37;;;13.53;;
21621;SDS011;10973;46.706;12.340;2022-12-18T09:08:36;29.50;;;18.47;;
21621;SDS011;10973;46.706;12.340;2022-12-18T09:11:11;23.67;;;15.07;;
21621;SDS011;10973;46.706;12.340;2022-12-18T09:13:46;20.47;;;12.13;;
21621;SDS011;10973;46.706;12.340;2022-12-18T09:16:14;12.30;;;9.10;;
21621;SDS011;10973;46.706;12.340;2022-12-18T09:18:42;10.10;;;9.10;;
21621;SDS011;10973;46.706;12.340;2022-12-18T09:21:11;9.23;;;7.90;;
21621;SDS011;10973;46.706;12.340;2022-12-18T09:23:41;8.93;;;7.43;;
21621;SDS011;10973;46.706;12.340;2022-12-18T09:26:10;10.60;;;8.73;;
21621;SDS011;10973;46.706;12.340;2022-12-18T09:28:37;10.30;;;6.47;;
21621;SDS011;10973;46.706;12.340;2022-12-18T09:31:06;7.40;;;6.67;;
21621;SDS011;10973;46.706;12.340;2022-12-18T09:33:35;7.40;;;6.60;;
21621;SDS011;10973;46.706;12.340;2022-12-18T09:36:03;6.00;;;5.43;;
21621;SDS011;10973;46.706;12.340;2022-12-18T09:38:33;7.00;;;6.30;;
21621;SDS011;10973;46.706;12.340;2022-12-18T09:47:12;8.17;;;7.13;;
21621;SDS011;10973;46.706;12.340;2022-12-18T09:49:53;7.90;;;5.80;;
21621;SDS011;10973;46.706;12.340;2022-12-18T09:52:32;5.90;;;5.30;;
21621;SDS011;10973;46.706;12.340;2022-12-18T09:55:17;6.57;;;5.97;;
21621;SDS011;10973;46.706;12.340;2022-12-18T09:58:07;5.17;;;4.67;;
21621;SDS011;10973;46.706;12.340;2022-12-18T10:01:14;5.10;;;4.60;;
21621;SDS011;10973;46.706;12.340;2022-12-18T10:03:48;9.27;;;6.77;;
21621;SDS011;10973;46.706;12.340;2022-12-18T10:15:19;6.07;;;5.47;;
21621;SDS011;10973;46.706;12.340;2022-12-18T10:21:51;16.27;;;10.60;;
21621;SDS011;10973;46.706;12.340;2022-12-18T10:24:48;9.57;;;7.37;;
21621;SDS011;10973;46.706;12.340;2022-12-18T10:27:28;6.67;;;6.07;;
21621;SDS011;10973;46.706;12.340;2022-12-18T10:29:58;7.53;;;6.10;;
21621;SDS011;10973;46.706;12.340;2022-12-18T10:32:28;11.03;;;7.53;;
21621;SDS011;10973;46.706;12.340;2022-12-18T10:34:57;11.60;;;8.40;;
21621;SDS011;10973;46.706;12.340;2022-12-18T10:37:27;6.13;;;5.20;;
21621;SDS011;10973;46.706;12.340;2022-12-18T10:40:13;4.10;;;3.67;;
21621;SDS011;10973;46.706;12.340;2022-12-18T10:42:59;3.33;;;3.03;;
21621;SDS011;10973;46.706;12.340;2022-12-18T10:45:39;3.33;;;3.13;;
21621;SDS011;10973;46.706;12.340;2022-12-18T10:48:20;3.10;;;2.90;;
21621;SDS011;10973;46.706;12.340;2022-12-18T10:50:49;3.90;;;3.60;;
21621;SDS011;10973;46.706;12.340;2022-12-18T10:53:39;3.30;;;3.10;;
21621;SDS011;10973;46.706;12.340;2022-12-18T10:56:08;3.43;;;3.23;;
21621;SDS011;10973;46.706;12.340;2022-12-18T10:58:37;3.10;;;2.90;;
21621;SDS011;10973;46.706;12.340;2022-12-18T11:01:10;3.20;;;3.00;;
21621;SDS011;10973;46.706;12.340;2022-12-18T11:03:41;3.77;;;3.47;;
21621;SDS011;10973;46.706;12.340;2022-12-18T11:06:20;3.60;;;3.37;;
21621;SDS011;10973;46.706;12.340;2022-12-18T11:11:55;2.40;;;2.30;;
21621;SDS011;10973;46.706;12.340;2022-12-18T11:14:32;2.33;;;2.23;;
21621;SDS011;10973;46.706;12.340;2022-12-18T11:17:29;2.57;;;2.37;;
21621;SDS011;10973;46.706;12.340;2022-12-18T11:20:02;2.23;;;2.13;;
21621;SDS011;10973;46.706;12.340;2022-12-18T11:22:45;2.60;;;2.50;;
21621;SDS011;10973;46.706;12.340;2022-12-18T11:25:30;2.37;;;2.27;;
21621;SDS011;10973;46.706;12.340;2022-12-18T11:28:02;2.50;;;2.20;;
21621;SDS011;10973;46.706;12.340;2022-12-18T11:31:24;2.23;;;2.13;;
21621;SDS011;10973;46.706;12.340;2022-12-18T11:34:00;2.47;;;2.33;;
21621;SDS011;10973;46.706;12.340;2022-12-18T11:36:55;2.63;;;2.53;;
21621;SDS011;10973;46.706;12.340;2022-12-18T11:39:31;2.00;;;1.90;;
21621;SDS011;10973;46.706;12.340;2022-12-18T11:53:03;1.80;;;1.80;;
21621;SDS011;10973;46.706;12.340;2022-12-18T12:10:18;2.10;;;1.90;;
21621;SDS011;10973;46.706;12.340;2022-12-18T12:22:40;1.47;;;1.47;;
21621;SDS011;10973;46.706;12.340;2022-12-18T12:31:41;2.10;;;2.00;;
21621;SDS011;10973;46.706;12.340;2022-12-18T12:34:34;2.23;;;2.13;;
21621;SDS011;10973;46.706;12.340;2022-12-18T12:40:24;2.60;;;2.40;;
21621;SDS011;10973;46.706;12.340;2022-12-18T12:43:20;6.40;;;5.03;;
21621;SDS011;10973;46.706;12.340;2022-12-18T12:46:02;9.03;;;6.70;;
21621;SDS011;10973;46.706;12.340;2022-12-18T12:54:17;11.93;;;8.17;;
21621;SDS011;10973;46.706;12.340;2022-12-18T12:59:47;12.43;;;7.80;;
21621;SDS011;10973;46.706;12.340;2022-12-18T13:02:46;6.73;;;5.37;;
21621;SDS011;10973;46.706;12.340;2022-12-18T13:09:11;8.20;;;6.87;;
21621;SDS011;10973;46.706;12.340;2022-12-18T13:11:45;9.97;;;5.80;;
21621;SDS011;10973;46.706;12.340;2022-12-18T13:14:20;7.57;;;6.73;;
21621;SDS011;10973;46.706;12.340;2022-12-18T13:17:41;24.43;;;14.43;;
21621;SDS011;10973;46.706;12.340;2022-12-18T13:20:08;28.63;;;17.87;;
21621;SDS011;10973;46.706;12.340;2022-12-18T13:22:42;29.50;;;16.97;;
21621;SDS011;10973;46.706;12.340;2022-12-18T13:28:11;20.10;;;12.50;;
21621;SDS011;10973;46.706;12.340;2022-12-18T13:31:01;15.27;;;10.90;;
21621;SDS011;10973;46.706;12.340;2022-12-18T13:44:36;27.30;;;16.23;;
21621;SDS011;10973;46.706;12.340;2022-12-18T13:49:59;20.83;;;12.63;;
21621;SDS011;10973;46.706;12.340;2022-12-18T13:52:33;15.97;;;11.30;;
21621;SDS011;10973;46.706;12.340;2022-12-18T13:55:07;15.40;;;11.37;;
21621;SDS011;10973;46.706;12.340;2022-12-18T13:57:45;19.90;;;11.67;;
21621;SDS011;10973;46.706;12.340;2022-12-18T14:00:23;17.47;;;11.93;;
21621;SDS011;10973;46.706;12.340;2022-12-18T14:02:57;20.53;;;13.67;;
21621;SDS011;10973;46.706;12.340;2022-12-18T14:07:54;12.93;;;9.07;;
21621;SDS011;10973;46.706;12.340;2022-12-18T14:10:28;21.73;;;14.07;;
21621;SDS011;10973;46.706;12.340;2022-12-18T14:13:23;22.63;;;14.00;;
21621;SDS011;10973;46.706;12.340;2022-12-18T14:15:56;43.60;;;25.90;;
21621;SDS011;10973;46.706;12.340;2022-12-18T14:18:46;42.77;;;26.97;;
21621;SDS011;10973;46.706;12.340;2022-12-18T14:21:31;31.53;;;20.33;;
21621;SDS011;10973;46.706;12.340;2022-12-18T14:24:06;25.53;;;16.77;;
21621;SDS011;10973;46.706;12.340;2022-12-18T14:26:45;21.33;;;14.97;;
21621;SDS011;10973;46.706;12.340;2022-12-18T14:32:04;28.30;;;18.00;;
21621;SDS011;10973;46.706;12.340;2022-12-18T14:34:48;23.77;;;16.50;;
21621;SDS011;10973;46.706;12.340;2022-12-18T14:37:22;33.63;;;16.57;;
21621;SDS011;10973;46.706;12.340;2022-12-18T14:39:52;23.77;;;15.47;;
21621;SDS011;10973;46.706;12.340;2022-12-18T14:42:27;19.50;;;13.27;;
21621;SDS011;10973;46.706;12.340;2022-12-18T14:45:39;12.40;;;10.13;;
21621;SDS011;10973;46.706;12.340;2022-12-18T14:48:12;21.57;;;9.47;;
21621;SDS011;10973;46.706;12.340;2022-12-18T14:50:56;11.03;;;8.77;;
21621;SDS011;10973;46.706;12.340;2022-12-18T14:53:38;10.03;;;8.30;;
21621;SDS011;10973;46.706;12.340;2022-12-18T14:56:19;12.37;;;9.03;;
21621;SDS011;10973;46.706;12.340;2022-12-18T14:58:58;11.80;;;8.57;;
21621;SDS011;10973;46.706;12.340;2022-12-18T15:01:33;22.80;;;15.67;;
21621;SDS011;10973;46.706;12.340;2022-12-18T15:04:24;30.83;;;18.73;;
21621;SDS011;10973;46.706;12.340;2022-12-18T15:10:09;25.00;;;16.67;;
21621;SDS011;10973;46.706;12.340;2022-12-18T15:12:49;23.10;;;13.67;;
21621;SDS011;10973;46.706;12.340;2022-12-18T15:20:43;27.27;;;16.87;;
21621;SDS011;10973;46.706;12.340;2022-12-18T15:23:37;92.20;;;44.20;;
21621;SDS011;10973;46.706;12.340;2022-12-18T15:26:12;105.63;;;51.17;;
21621;SDS011;10973;46.706;12.340;2022-12-18T15:28:49;72.87;;;36.13;;
21621;SDS011;10973;46.706;12.340;2022-12-18T15:34:05;36.83;;;18.73;;
21621;SDS011;10973;46.706;12.340;2022-12-18T15:36:45;29.90;;;17.57;;
21621;SDS011;10973;46.706;12.340;2022-12-18T15:39:13;30.67;;;18.73;;
21621;SDS011;10973;46.706;12.340;2022-12-18T15:41:40;21.20;;;14.37;;
21621;SDS011;10973;46.706;12.340;2022-12-18T15:44:21;29.10;;;19.30;;
21621;SDS011;10973;46.706;12.340;2022-12-18T15:46:51;24.30;;;16.53;;
21621;SDS011;10973;46.706;12.340;2022-12-18T15:49:18;23.97;;;17.30;;
21621;SDS011;10973;46.706;12.340;2022-12-18T15:51:45;13.33;;;11.17;;
21621;SDS011;10973;46.706;12.340;2022-12-18T15:54:24;15.63;;;11.93;;
21621;SDS011;10973;46.706;12.340;2022-12-18T15:56:52;14.60;;;10.23;;
21621;SDS011;10973;46.706;12.340;2022-12-18T15:59:19;17.83;;;11.57;;
21621;SDS011;10973;46.706;12.340;2022-12-18T16:01:49;11.23;;;7.50;;
21621;SDS011;10973;46.706;12.340;2022-12-18T16:04:18;13.67;;;8.80;;
21621;SDS011;10973;46.706;12.340;2022-12-18T16:06:48;15.97;;;9.20;;
21621;SDS011;10973;46.706;12.340;2022-12-18T16:09:36;14.77;;;10.60;;
21621;SDS011;10973;46.706;12.340;2022-12-18T16:12:04;19.87;;;14.07;;
21621;SDS011;10973;46.706;12.340;2022-12-18T16:14:40;12.90;;;9.67;;
21621;SDS011;10973;46.706;12.340;2022-12-18T16:17:09;12.43;;;9.47;;
21621;SDS011;10973;46.706;12.340;2022-12-18T16:19:39;15.63;;;11.17;;
21621;SDS011;10973;46.706;12.340;2022-12-18T16:22:08;14.57;;;10.13;;
21621;SDS011;10973;46.706;12.340;2022-12-18T16:24:55;13.57;;;10.40;;
21621;SDS011;10973;46.706;12.340;2022-12-18T16:27:24;14.87;;;11.40;;
21621;SDS011;10973;46.706;12.340;2022-12-18T16:29:52;20.77;;;15.53;;
21621;SDS011;10973;46.706;12.340;2022-12-18T16:32:19;22.20;;;15.77;;
21621;SDS011;10973;46.706;12.340;2022-12-18T16:34:49;23.97;;;15.67;;
21621;SDS011;10973;46.706;12.340;2022-12-18T16:37:17;38.77;;;20.93;;
21621;SDS011;10973;46.706;12.340;2022-12-18T16:39:44;61.10;;;29.17;;
21621;SDS011;10973;46.706;12.340;2022-12-18T16:42:13;70.33;;;35.07;;
21621;SDS011;10973;46.706;12.340;2022-12-18T16:44:45;36.87;;;22.63;;
21621;SDS011;10973;46.706;12.340;2022-12-18T16:47:16;23.20;;;15.83;;
21621;SDS011;10973;46.706;12.340;2022-12-18T16:49:49;28.90;;;19.10;;
21621;SDS011;10973;46.706;12.340;2022-12-18T16:53:02;25.43;;;17.03;;
21621;SDS011;10973;46.706;12.340;2022-12-18T16:55:34;19.97;;;13.83;;
21621;SDS011;10973;46.706;12.340;2022-12-18T16:58:50;18.00;;;13.20;;
21621;SDS011;10973;46.706;12.340;2022-12-18T17:01:20;19.63;;;14.43;;
21621;SDS011;10973;46.706;12.340;2022-12-18T17:03:56;19.33;;;13.77;;
21621;SDS011;10973;46.706;12.340;2022-12-18T17:06:30;13.43;;;10.10;;
21621;SDS011;10973;46.706;12.340;2022-12-18T17:09:03;14.33;;;10.67;;
21621;SDS011;10973;46.706;12.340;2022-12-18T17:11:39;12.70;;;10.30;;
21621;SDS011;10973;46.706;12.340;2022-12-18T17:14:11;20.47;;;15.43;;
21621;SDS011;10973;46.706;12.340;2022-12-18T17:16:41;14.87;;;11.57;;
21621;SDS011;10973;46.706;12.340;2022-12-18T17:19:10;12.67;;;11.27;;